Data for 02/15/2015

Time Sea-Level Adjusted Pressure Absolute Pressure Temperature Relative Humidity Dew Point   
(mb) (inHg) (mb) (inHg) (C) (F) (%) (C) (F)
00:05 1021 30.15 850 25.1 4.4 39.9 69 -0.9 30.4
00:10 1021 30.15 850 25.1 4.5 40.1 68 -0.8 30.5
00:15 1021 30.15 850 25.1 4.4 39.9 69 -0.9 30.4
00:20 1021 30.15 850 25.1 4.4 40 67 -1.1 30.1
00:25 1021 30.15 850 25.1 4.6 40.2 67 -1 30.2
00:30 1021 30.15 850 25.1 4.5 40.1 68 -0.9 30.5
00:35 1021 30.15 850 25.1 4.3 39.8 70 -0.7 30.8
00:40 1021 30.15 850 25.1 4.2 39.5 70 -0.7 30.7
00:45 1021 30.15 850 25.1 4.2 39.5 67 -1.3 29.6
00:50 1021 30.15 850 25.1 4.3 39.7 66 -1.4 29.4
00:55 1021 30.15 850 25.1 4.4 39.8 66 -1.4 29.5
01:00 1021 30.15 850 25.1 4.3 39.7 67 -1.3 29.7
01:05 1021 30.15 851 25.13 4.2 39.6 70 -0.9 30.4
01:10 1021 30.15 851 25.13 4 39.2 71 -0.7 30.7
01:15 1021 30.15 851 25.13 3.8 38.9 72 -0.7 30.7
01:20 1021 30.15 851 25.13 3.8 38.8 71 -1 30.3
01:25 1021 30.15 851 25.13 3.8 38.9 70 -1.2 29.8
01:30 1021 30.15 851 25.13 3.9 39.1 67 -1.7 28.9
01:35 1022 30.18 851 25.13 4 39.3 67 -1.6 29.1
01:40 1021 30.15 851 25.13 4 39.2 66 -1.8 28.8
01:45 1022 30.18 851 25.13 4.1 39.3 65 -1.9 28.6
01:50 1022 30.18 851 25.13 4.2 39.5 64 -2 28.5
01:55 1022 30.18 851 25.13 4.3 39.7 63 -2.1 28.2
02:00 1022 30.18 851 25.13 4.3 39.7 63 -2 28.4
02:05 1022 30.18 851 25.13 4.2 39.6 64 -1.9 28.5
02:10 1022 30.18 851 25.13 4.1 39.3 65 -1.9 28.6
02:15 1022 30.18 851 25.13 3.9 39.1 65 -2.1 28.3
02:20 1022 30.18 851 25.13 3.8 38.8 66 -2.1 28.3
02:25 1022 30.18 851 25.13 3.7 38.6 66 -2.2 28.1
02:30 1022 30.18 851 25.13 3.5 38.3 66 -2.3 27.9
02:35 1022 30.18 851 25.13 3.4 38 66 -2.5 27.5
02:40 1022 30.18 851 25.13 3.2 37.7 66 -2.5 27.5
02:45 1022 30.18 851 25.13 3 37.5 66 -2.6 27.3
02:50 1022 30.18 851 25.13 2.9 37.3 67 -2.7 27.2
02:55 1022 30.18 851 25.13 2.8 37.1 67 -2.7 27.1
03:00 1022 30.18 851 25.13 2.7 36.9 67 -2.9 26.8
03:05 1022 30.18 852 25.16 2.6 36.7 68 -2.8 27
03:10 1022 30.18 852 25.16 2.4 36.3 69 -2.8 27
03:15 1022 30.18 852 25.16 2.2 35.9 70 -2.8 27
03:20 1022 30.18 852 25.16 1.9 35.5 71 -2.8 27
03:25 1022 30.18 852 25.16 1.7 35 72 -2.9 26.7
03:30 1022 30.18 852 25.16 1.5 34.8 72 -3.1 26.5
03:35 1022 30.18 852 25.16 1.5 34.7 71 -3.1 26.4
03:40 1022 30.18 852 25.16 1.5 34.6 71 -3.2 26.3
03:45 1022 30.18 852 25.16 1.3 34.4 72 -3.2 26.3
03:50 1022 30.18 852 25.16 1.3 34.3 72 -3.3 26.1
03:55 1023 30.21 852 25.16 1.3 34.3 72 -3.3 26
04:00 1023 30.21 852 25.16 1.3 34.3 71 -3.4 26
04:05 1023 30.21 852 25.16 1.4 34.4 71 -3.3 26
04:10 1023 30.21 852 25.16 1.3 34.4 71 -3.3 26.1
04:15 1023 30.21 852 25.16 1.3 34.4 72 -3.3 26.1
04:20 1022 30.18 852 25.16 1.3 34.3 71 -3.4 25.8
04:25 1023 30.21 852 25.16 1.5 34.6 70 -3.4 25.9
04:30 1023 30.21 852 25.16 1.5 34.7 70 -3.3 26.1
04:35 1023 30.21 852 25.16 1.6 34.8 70 -3.3 26
04:40 1023 30.21 852 25.16 1.7 35 70 -3.3 26.1
04:45 1023 30.21 852 25.16 1.8 35.2 70 -3.2 26.3
04:50 1023 30.21 852 25.16 1.8 35.3 69 -3.2 26.3
04:55 1023 30.21 852 25.16 1.6 34.8 72 -3 26.7
05:00 1023 30.21 852 25.16 1.3 34.3 72 -3.2 26.2
05:05 1023 30.21 852 25.16 1.4 34.5 71 -3.2 26.2
05:10 1023 30.21 852 25.16 1.5 34.7 71 -3.1 26.4
05:15 1023 30.21 852 25.16 1.6 34.9 70 -3.2 26.3
05:20 1023 30.21 852 25.16 1.4 34.5 72 -3 26.5
05:25 1023 30.21 852 25.16 1.1 33.9 73 -3.2 26.3
05:30 1023 30.21 852 25.16 0.9 33.7 74 -3.2 26.3
05:35 1023 30.21 852 25.16 0.8 33.5 74 -3.2 26.2
05:40 1023 30.21 852 25.16 0.8 33.4 75 -3.2 26.3
05:45 1023 30.21 852 25.16 0.8 33.4 77 -2.9 26.8
05:50 1023 30.21 852 25.16 0.9 33.7 77 -2.7 27.1
05:55 1023 30.21 852 25.16 1 33.8 74 -3.1 26.4
06:00 1023 30.21 852 25.16 1.1 34 73 -3.2 26.3
06:05 1023 30.21 852 25.16 1.2 34.1 73 -3.1 26.4
06:10 1023 30.21 852 25.16 1.2 34.2 73 -3 26.5
06:15 1023 30.21 852 25.16 1.3 34.3 74 -3 26.7
06:20 1023 30.21 853 25.19 1.3 34.3 73 -3 26.7
06:25 1023 30.21 853 25.19 1.2 34.1 74 -2.9 26.7
06:30 1023 30.21 853 25.19 1.1 34.1 74 -3 26.6
06:35 1023 30.21 853 25.19 1.1 33.9 74 -3 26.7
06:40 1023 30.21 853 25.19 1 33.8 74 -3.1 26.5
06:45 1023 30.21 853 25.19 1 33.7 74 -3.1 26.5
06:50 1024 30.24 853 25.19 0.9 33.7 75 -3.1 26.4
06:55 1024 30.24 853 25.19 1 33.8 74 -3.1 26.5
07:00 1024 30.24 853 25.19 0.9 33.7 75 -3.1 26.4
07:05 1024 30.24 853 25.19 0.9 33.6 75 -3.1 26.5
07:10 1024 30.24 853 25.19 0.8 33.5 75 -3 26.5
07:15 1024 30.24 853 25.19 0.8 33.4 76 -3 26.6
07:20 1024 30.24 853 25.19 0.8 33.4 76 -3 26.6
07:25 1024 30.24 853 25.19 0.7 33.3 76 -3 26.7
07:30 1024 30.24 853 25.19 0.6 33.1 77 -2.9 26.7
07:35 1024 30.24 853 25.19 0.5 33 78 -2.9 26.8
07:40 1024 30.24 853 25.19 0.4 32.7 79 -2.9 26.7
07:45 1024 30.24 853 25.19 0.4 32.6 79 -2.9 26.8
07:50 1024 30.24 853 25.19 0.3 32.6 79 -2.9 26.7
07:55 1024 30.24 853 25.19 0.3 32.6 79 -3 26.7
08:00 1024 30.24 853 25.19 0.2 32.4 79 -2.9 26.8
08:05 1024 30.24 853 25.19 0.1 32.1 80 -3 26.7
08:10 1024 30.24 853 25.19 -0 32 80 -3 26.6
08:15 1024 30.24 853 25.19 0 32 80 -3 26.6
08:20 1024 30.24 853 25.19 -0.1 31.9 80 -3 26.5
08:25 1024 30.24 853 25.19 -0.1 31.8 81 -3 26.6
08:30 1024 30.24 853 25.19 -0.1 31.8 81 -3 26.6
08:35 1024 30.24 853 25.19 -0.2 31.7 81 -3 26.5
08:40 1024 30.24 853 25.19 -0.2 31.7 81 -3 26.6
08:45 1024 30.24 853 25.19 -0.1 31.8 81 -3 26.6
08:50 1024 30.24 853 25.19 0 32.1 80 -3.1 26.5
08:55 1024 30.24 853 25.19 0.2 32.4 79 -3 26.6
09:00 1024 30.24 853 25.19 0.2 32.4 79 -3 26.6
09:05 1024 30.24 853 25.19 0.3 32.5 79 -3 26.6
09:10 1024 30.24 853 25.19 0.4 32.7 78 -3 26.6
09:15 1024 30.24 853 25.19 0.5 33 78 -2.9 26.7
09:20 1024 30.24 853 25.19 0.6 33 78 -2.9 26.8
09:25 1024 30.24 853 25.19 0.6 33.1 77 -3 26.7
09:30 1024 30.24 853 25.19 0.9 33.6 76 -2.9 26.8
09:35 1024 30.24 853 25.19 0.8 33.5 77 -2.8 27
09:40 1024 30.24 853 25.19 0.8 33.4 78 -2.7 27.1
09:45 1024 30.24 853 25.19 0.6 33 78 -2.8 26.9
09:50 1024 30.24 853 25.19 0.6 33.1 78 -2.8 27
09:55 1024 30.24 853 25.19 0.8 33.4 77 -2.7 27.1
10:00 1024 30.24 853 25.19 1 33.8 77 -2.6 27.2
10:05 1024 30.24 853 25.19 1.3 34.3 75 -2.6 27.2
10:10 1024 30.24 853 25.19 1.3 34.3 75 -2.6 27.2
10:15 1024 30.24 853 25.19 1.3 34.3 75 -2.6 27.2
10:20 1024 30.24 853 25.19 1.4 34.6 74 -2.8 27
10:25 1024 30.24 853 25.19 1.6 34.9 72 -2.8 26.9
10:30 1024 30.24 853 25.19 1.7 35 72 -2.9 26.8
10:35 1024 30.24 853 25.19 1.9 35.4 70 -3 26.7
10:40 1024 30.24 853 25.19 1.9 35.3 70 -3.1 26.5
10:45 1024 30.24 853 25.19 1.9 35.5 70 -3 26.7
10:50 1024 30.24 853 25.19 2.2 35.9 69 -3 26.6
10:55 1024 30.24 854 25.22 2.2 36 69 -2.9 26.9
11:00 1024 30.24 854 25.22 2.2 35.9 68 -3.1 26.4
11:05 1024 30.24 854 25.22 2.2 36 70 -2.8 27
11:10 1024 30.24 854 25.22 2.1 35.8 69 -2.9 26.8
11:15 1024 30.24 854 25.22 2.2 35.9 70 -2.7 27.1
11:20 1024 30.24 854 25.22 2.1 35.9 71 -2.6 27.3
11:25 1024 30.24 854 25.22 2.1 35.7 71 -2.7 27.2
11:30 1024 30.24 853 25.19 2.3 36.1 69 -2.9 26.8
11:35 1024 30.24 853 25.19 3 37.3 67 -2.6 27.3
11:40 1024 30.24 853 25.19 2.7 36.8 68 -2.6 27.3
11:45 1024 30.24 853 25.19 2.6 36.6 68 -2.7 27.1
11:50 1024 30.24 853 25.19 3 37.3 66 -2.7 27.2
11:55 1024 30.24 853 25.19 2.8 37 67 -2.7 27.1
12:00 1024 30.24 853 25.19 3.1 37.6 66 -2.7 27.2
12:05 1024 30.24 853 25.19 2.9 37.2 66 -2.8 27
12:10 1024 30.24 853 25.19 2.5 36.6 69 -2.6 27.3
12:15 1024 30.24 853 25.19 2.8 37 64 -3.3 26.1
12:20 1024 30.24 853 25.19 3.1 37.6 62 -3.4 25.9
12:25 1024 30.24 853 25.19 4 39.1 59 -3.3 26
12:30 1024 30.24 853 25.19 4.6 40.2 60 -2.5 27.4
12:35 1024 30.24 853 25.19 3.9 38.9 64 -2.3 27.9
12:40 1024 30.24 853 25.19 3.3 38 63 -3.1 26.5
12:45 1024 30.24 853 25.19 3.4 38.2 63 -2.9 26.7
12:50 1024 30.24 853 25.19 3.6 38.4 60 -3.5 25.8
12:55 1024 30.24 853 25.19 3.6 38.5 60 -3.5 25.6
13:00 1024 30.24 853 25.19 4.1 39.3 57 -3.8 25.2
13:05 1024 30.24 853 25.19 4.2 39.5 57 -3.6 25.5
13:10 1024 30.24 853 25.19 4 39.2 56 -4 24.8
13:15 1024 30.24 853 25.19 3.9 39 56 -4 24.8
13:20 1024 30.24 853 25.19 4.6 40.3 53 -4.2 24.5
13:25 1023 30.21 853 25.19 4.9 40.9 52 -4.2 24.5
13:30 1023 30.21 853 25.19 5.3 41.5 53 -3.5 25.7
13:35 1023 30.21 852 25.16 4.7 40.5 52 -4.3 24.2
13:40 1023 30.21 852 25.16 4.5 40 54 -4.1 24.6
13:45 1023 30.21 852 25.16 4.2 39.6 55 -4.1 24.6
13:50 1023 30.21 852 25.16 4.2 39.5 54 -4.4 24.2
13:55 1023 30.21 852 25.16 4.7 40.4 52 -4.5 23.9
14:00 1023 30.21 852 25.16 4.9 40.9 50 -4.7 23.5
14:05 1023 30.21 852 25.16 4.5 40.1 49 -5.2 22.7
14:10 1023 30.21 852 25.16 5.1 41.1 47 -5.2 22.6
14:15 1023 30.21 852 25.16 4.8 40.7 51 -4.6 23.8
14:20 1023 30.21 852 25.16 4.5 40.2 50 -4.9 23.2
14:25 1023 30.21 852 25.16 4.5 40 50 -5 22.9
14:30 1022 30.18 852 25.16 4.4 39.8 48 -5.6 21.9
14:35 1022 30.18 852 25.16 4.5 40.2 47 -5.9 21.4
14:40 1022 30.18 851 25.13 4.5 40.2 47 -5.7 21.8
14:45 1022 30.18 851 25.13 5 41 45 -5.9 21.4
14:50 1022 30.18 851 25.13 5.2 41.3 44 -6.1 21
14:55 1022 30.18 851 25.13 4.8 40.6 46 -5.9 21.3
15:00 1022 30.18 851 25.13 4.5 40.1 45 -6.4 20.4
15:05 1022 30.18 851 25.13 5.2 41.4 43 -6.5 20.3
15:10 1022 30.18 851 25.13 5.5 41.8 39 -7.3 18.9
15:15 1022 30.18 851 25.13 5.1 41.2 45 -5.9 21.4
15:20 1022 30.18 851 25.13 4.9 40.8 43 -6.8 19.8
15:25 1022 30.18 851 25.13 5.3 41.5 42 -6.7 20
15:30 1022 30.18 851 25.13 4.9 40.8 43 -6.6 20.2
15:35 1022 30.18 851 25.13 4.7 40.4 49 -5.2 22.7
15:40 1022 30.18 851 25.13 4.2 39.6 50 -5.2 22.7
15:45 1022 30.18 851 25.13 4 39.1 58 -3.7 25.4
15:50 1022 30.18 852 25.16 2.8 37 59 -4.4 24.2
15:55 1022 30.18 852 25.16 2.1 35.8 59 -5 23
16:00 1022 30.18 852 25.16 2 35.6 63 -4.2 24.4
16:05 1022 30.18 852 25.16 1.7 35 64 -4.4 24
16:10 1022 30.18 852 25.16 1.2 34.2 66 -4.4 24.1
16:15 1022 30.18 852 25.16 0.9 33.6 68 -4.3 24.2
16:20 1022 30.18 852 25.16 0.5 33 74 -3.6 25.6
16:25 1022 30.18 852 25.16 0.2 32.4 75 -3.8 25.2
16:30 1022 30.18 852 25.16 0.3 32.6 73 -3.9 24.9
16:35 1022 30.18 852 25.16 0.7 33.3 74 -3.5 25.8
16:40 1022 30.18 852 25.16 0.9 33.6 73 -3.4 25.8
16:45 1022 30.18 852 25.16 1.1 34.1 65 -4.6 23.7
16:50 1022 30.18 851 25.13 2 35.6 65 -4 24.8
16:55 1022 30.18 851 25.13 2.2 36 62 -4.3 24.3
17:00 1022 30.18 851 25.13 2.1 35.7 61 -4.8 23.4
17:05 1022 30.18 851 25.13 1.9 35.4 65 -4.1 24.6
17:10 1022 30.18 851 25.13 1.9 35.4 63 -4.5 23.8
17:15 1022 30.18 851 25.13 1.7 35 64 -4.5 23.9
17:20 1022 30.18 851 25.13 1.5 34.8 64 -4.6 23.8
17:25 1022 30.18 851 25.13 1.6 34.9 64 -4.5 23.8
17:30 1022 30.18 851 25.13 2.3 36.1 62 -4.3 24.2
17:35 1022 30.18 851 25.13 2.5 36.6 62 -4.1 24.6
17:40 1022 30.18 851 25.13 2.5 36.6 62 -4 24.8
17:45 1022 30.18 851 25.13 2.3 36.1 63 -4.2 24.5
17:50 1022 30.18 851 25.13 1.8 35.3 62 -4.6 23.7
17:55 1022 30.18 851 25.13 1.5 34.7 63 -4.7 23.5
18:00 1022 30.18 851 25.13 1.4 34.6 64 -4.7 23.5
18:05 1022 30.18 851 25.13 1.5 34.7 62 -5 23
18:10 1022 30.18 851 25.13 1.8 35.3 60 -5.1 22.8
18:15 1022 30.18 851 25.13 2 35.5 59 -5.2 22.7
18:20 1022 30.18 851 25.13 2 35.6 59 -5.2 22.6
18:25 1022 30.18 851 25.13 2 35.6 58 -5.3 22.5
18:30 1022 30.18 851 25.13 2 35.6 58 -5.4 22.3
18:35 1022 30.18 851 25.13 2 35.6 59 -5.3 22.5
18:40 1022 30.18 851 25.13 2 35.5 59 -5.3 22.5
18:45 1022 30.18 851 25.13 1.8 35.3 59 -5.3 22.5
18:50 1022 30.18 851 25.13 1.7 35 60 -5.4 22.4
18:55 1022 30.18 851 25.13 1.5 34.7 61 -5.2 22.6
19:00 1022 30.18 851 25.13 1.4 34.6 61 -5.2 22.6
19:05 1022 30.18 851 25.13 1.3 34.4 62 -5.1 22.7
19:10 1022 30.18 851 25.13 1.2 34.1 65 -4.8 23.4
19:15 1022 30.18 851 25.13 0.8 33.5 63 -5.3 22.4
19:20 1022 30.18 851 25.13 0.7 33.3 64 -5.2 22.6
19:25 1022 30.18 851 25.13 0.8 33.4 64 -5.3 22.4
19:30 1022 30.18 851 25.13 0.8 33.4 63 -5.5 22.1
19:35 1022 30.18 851 25.13 0.9 33.6 63 -5.5 22.2
19:40 1022 30.18 851 25.13 0.8 33.5 65 -5 23.1
19:45 1022 30.18 851 25.13 0.7 33.2 64 -5.3 22.4
19:50 1022 30.18 851 25.13 0.7 33.2 64 -5.3 22.4
19:55 1022 30.18 851 25.13 0.6 33 67 -4.8 23.3
20:00 1022 30.18 851 25.13 0.2 32.3 66 -5.3 22.4
20:05 1022 30.18 852 25.16 0.1 32.3 66 -5.5 22.2
20:10 1022 30.18 852 25.16 0.1 32.2 66 -5.5 22.1
20:15 1022 30.18 851 25.13 0.3 32.5 66 -5.3 22.5
20:20 1022 30.18 852 25.16 0.1 32.2 68 -5.2 22.7
20:25 1022 30.18 852 25.16 -0 32 70 -4.9 23.2
20:30 1022 30.18 852 25.16 -0.1 31.9 71 -4.7 23.6
20:35 1022 30.18 852 25.16 -0.1 31.8 73 -4.4 24.1
20:40 1022 30.18 852 25.16 -0.2 31.6 75 -4.2 24.5
20:45 1022 30.18 852 25.16 -0.2 31.7 76 -3.8 25.1
20:50 1022 30.18 852 25.16 -0.1 31.8 77 -3.7 25.4
20:55 1022 30.18 852 25.16 -0.1 31.7 79 -3.4 25.9
21:00 1022 30.18 852 25.16 -0.2 31.7 79 -3.3 26
21:05 1022 30.18 852 25.16 -0.2 31.7 80 -3.3 26.1
21:10 1023 30.21 852 25.16 -0.2 31.6 81 -3.1 26.4
21:15 1023 30.21 852 25.16 -0.2 31.6 81 -3.1 26.4
21:20 1022 30.18 852 25.16 -0.4 31.3 82 -3.1 26.4
21:25 1022 30.18 852 25.16 -0.4 31.3 80 -3.4 25.9
21:30 1022 30.18 852 25.16 -0.3 31.4 80 -3.3 26.1
21:35 1023 30.21 852 25.16 -0.3 31.4 80 -3.3 26
21:40 1023 30.21 852 25.16 -0.4 31.3 81 -3.3 26
21:45 1022 30.18 852 25.16 -0.4 31.2 81 -3.4 26
21:50 1022 30.18 852 25.16 -0.5 31.1 82 -3.3 26.1
21:55 1022 30.18 852 25.16 -0.6 31 82 -3.3 26
22:00 1022 30.18 852 25.16 -0.7 30.8 83 -3.2 26.2
22:05 1022 30.18 852 25.16 -0.8 30.6 84 -3.2 26.2
22:10 1022 30.18 852 25.16 -0.9 30.4 83 -3.3 26
22:15 1022 30.18 852 25.16 -0.9 30.4 82 -3.5 25.7
22:20 1023 30.21 852 25.16 -0.8 30.5 82 -3.5 25.7
22:25 1022 30.18 852 25.16 -0.8 30.5 82 -3.6 25.6
22:30 1023 30.21 852 25.16 -0.8 30.5 83 -3.3 26
22:35 1022 30.18 852 25.16 -0.9 30.3 84 -3.4 25.9
22:40 1022 30.18 852 25.16 -0.9 30.4 83 -3.4 25.8
22:45 1023 30.21 852 25.16 -0.9 30.4 84 -3.3 26
22:50 1023 30.21 852 25.16 -0.9 30.5 84 -3.2 26.2
22:55 1022 30.18 852 25.16 -0.9 30.4 85 -3.1 26.4
23:00 1022 30.18 852 25.16 -0.9 30.4 85 -3.1 26.5
23:05 1022 30.18 852 25.16 -0.9 30.4 85 -3.2 26.3
23:10 1022 30.18 852 25.16 -0.9 30.4 84 -3.2 26.2
23:15 1022 30.18 852 25.16 -0.9 30.5 84 -3.2 26.3
23:20 1022 30.18 852 25.16 -0.9 30.4 85 -3.1 26.4
23:25 1023 30.21 852 25.16 -0.9 30.4 84 -3.2 26.2
23:30 1023 30.21 852 25.16 -0.9 30.4 84 -3.2 26.2
23:35 1023 30.21 852 25.16 -0.9 30.4 85 -3.1 26.4
23:40 1023 30.21 852 25.16 -1 30.3 87 -2.9 26.8
23:45 1023 30.21 852 25.16 -1 30.1 88 -2.7 27.1
23:50 1023 30.21 852 25.16 -1.1 29.9 90 -2.6 27.3
23:55 1023 30.21 852 25.16 -1.3 29.7 91 -2.6 27.4
24:00 1022 30.18 852 25.16 -1.4 29.4 92 -2.6 27.4